createdAt,value
2018-02-01T00:00:39.170Z,4.70
2018-02-01T00:03:08.385Z,4.67
2018-02-01T00:05:37.666Z,4.65
2018-02-01T00:08:06.877Z,4.62
2018-02-01T00:10:36.095Z,4.57
2018-02-01T00:13:05.312Z,4.56
2018-02-01T00:15:34.601Z,4.53
2018-02-01T00:18:05.314Z,4.57
2018-02-01T00:20:34.561Z,4.58
2018-02-01T00:23:03.788Z,4.52
2018-02-01T00:25:33.034Z,4.45
2018-02-01T00:28:03.030Z,4.48
2018-02-01T00:30:33.747Z,4.44
2018-02-01T00:33:02.971Z,4.38
2018-02-01T00:35:32.305Z,4.37
2018-02-01T00:38:01.532Z,4.31
2018-02-01T00:40:30.733Z,4.32
2018-02-01T00:42:59.935Z,4.32
2018-02-01T00:45:29.167Z,4.27
2018-02-01T00:47:58.338Z,4.25
2018-02-01T00:50:27.537Z,4.21
2018-02-01T00:52:56.826Z,4.19
2018-02-01T00:55:26.067Z,4.23
2018-02-01T00:57:56.062Z,4.19
2018-02-01T01:00:26.191Z,4.18
2018-02-01T01:02:55.411Z,4.16
2018-02-01T01:05:24.639Z,4.09
2018-02-01T01:07:53.831Z,4.10
2018-02-01T01:10:23.090Z,4.13
2018-02-01T01:12:53.167Z,4.08
2018-02-01T01:15:22.592Z,4.07
2018-02-01T01:17:51.859Z,4.07
2018-02-01T01:20:21.085Z,4.04
2018-02-01T01:22:51.793Z,4.01
2018-02-01T01:25:21.004Z,4.01
2018-02-01T01:27:50.890Z,3.99
2018-02-01T01:30:20.109Z,3.97
2018-02-01T01:32:49.333Z,3.95
2018-02-01T01:35:18.557Z,3.91
2018-02-01T01:37:48.528Z,3.89
2018-02-01T01:40:17.779Z,3.86
2018-02-01T01:42:46.974Z,3.87
2018-02-01T01:45:16.973Z,3.84
2018-02-01T01:47:47.034Z,3.85
2018-02-01T01:50:16.262Z,3.85
2018-02-01T01:52:45.514Z,3.88
2018-02-01T01:55:14.713Z,3.83
2018-02-01T01:57:44.040Z,3.82
2018-02-01T02:00:13.376Z,3.87
2018-02-01T02:02:42.719Z,3.84
2018-02-01T02:05:11.983Z,3.79
2018-02-01T02:07:41.987Z,3.78
2018-02-01T02:10:11.222Z,3.76
2018-02-01T02:12:40.455Z,3.77
2018-02-01T02:15:09.694Z,3.78
2018-02-01T02:17:40.308Z,3.82
2018-02-01T02:20:09.541Z,3.84
2018-02-01T02:22:39.598Z,3.79
2018-02-01T02:25:08.842Z,3.82
2018-02-01T02:27:38.787Z,3.83
2018-02-01T02:30:07.990Z,3.86
2018-02-01T02:32:37.205Z,3.82
2018-02-01T02:35:06.408Z,3.84
2018-02-01T02:37:35.665Z,3.84
2018-02-01T02:40:05.638Z,3.79
2018-02-01T02:42:34.923Z,3.81
2018-02-01T02:45:04.151Z,3.79
2018-02-01T02:47:33.346Z,3.77
2018-02-01T02:50:03.336Z,3.78
2018-02-01T02:52:32.596Z,3.80
2018-02-01T02:55:01.828Z,3.74
2018-02-01T02:57:31.182Z,3.68
2018-02-01T03:00:01.130Z,3.63
2018-02-01T03:02:30.354Z,3.56
2018-02-01T03:04:59.561Z,3.54
2018-02-01T03:07:28.944Z,3.56
2018-02-01T03:09:58.138Z,3.53
2018-02-01T03:12:27.438Z,3.56
2018-02-01T03:14:56.728Z,3.57
2018-02-01T03:17:25.965Z,3.58
2018-02-01T03:19:55.996Z,3.59
2018-02-01T03:22:25.283Z,3.55
2018-02-01T03:24:55.261Z,3.57
2018-02-01T03:27:24.522Z,3.60
2018-02-01T03:29:53.709Z,3.58
2018-02-01T03:32:23.121Z,3.58
2018-02-01T03:34:52.355Z,3.56
2018-02-01T03:37:21.576Z,3.54
2018-02-01T03:39:50.906Z,3.54
2018-02-01T03:42:20.111Z,3.57
2018-02-01T03:44:49.354Z,3.55
2018-02-01T03:47:18.578Z,3.51
2018-02-01T03:49:47.827Z,3.51
2018-02-01T03:52:17.048Z,3.53
2018-02-01T03:54:46.330Z,3.54
2018-02-01T03:57:15.630Z,3.54
2018-02-01T03:59:44.862Z,3.51
2018-02-01T04:02:14.059Z,3.51
2018-02-01T04:04:43.298Z,3.51
2018-02-01T04:07:12.506Z,3.48
2018-02-01T04:09:41.741Z,3.49
2018-02-01T04:12:10.957Z,3.49
2018-02-01T04:14:40.159Z,3.51
2018-02-01T04:17:09.363Z,3.48
2018-02-01T04:19:39.339Z,3.50
2018-02-01T04:22:08.856Z,3.47
2018-02-01T04:24:38.080Z,3.44
2018-02-01T04:27:08.073Z,3.45
2018-02-01T04:29:37.271Z,3.39
2018-02-01T04:32:06.499Z,3.40
2018-02-01T04:34:36.584Z,3.40
2018-02-01T04:37:05.826Z,3.37
2018-02-01T04:39:35.122Z,3.29
2018-02-01T04:42:04.363Z,3.31
2018-02-01T04:44:34.334Z,3.31
2018-02-01T04:47:03.551Z,3.29
2018-02-01T04:49:32.886Z,3.29
2018-02-01T04:52:02.102Z,3.27
2018-02-01T04:54:31.346Z,3.25
2018-02-01T04:57:00.583Z,3.27
2018-02-01T04:59:29.791Z,3.26
2018-02-01T05:01:59.087Z,3.27
2018-02-01T05:04:28.314Z,3.27
2018-02-01T05:06:58.282Z,3.26
2018-02-01T05:09:28.281Z,3.28
2018-02-01T05:11:57.493Z,3.34
2018-02-01T05:14:26.746Z,3.31
2018-02-01T05:16:56.720Z,3.30
2018-02-01T05:19:25.953Z,3.30
2018-02-01T05:21:55.935Z,3.30
2018-02-01T05:24:25.106Z,3.32
2018-02-01T05:26:54.396Z,3.25
2018-02-01T05:29:23.672Z,3.21
2018-02-01T05:31:52.888Z,3.19
2018-02-01T05:34:22.075Z,3.20
2018-02-01T05:36:51.290Z,3.20
2018-02-01T05:39:20.494Z,3.19
2018-02-01T05:41:49.705Z,3.11
2018-02-01T05:44:18.890Z,3.14
2018-02-01T05:46:48.099Z,3.13
2018-02-01T05:49:18.120Z,3.09
2018-02-01T05:51:47.331Z,3.11
2018-02-01T05:54:16.547Z,3.09
2018-02-01T05:56:46.586Z,3.10
2018-02-01T05:59:15.855Z,3.05
2018-02-01T06:01:45.146Z,3.03
2018-02-01T06:04:14.344Z,3.05
2018-02-01T06:06:43.558Z,3.03
2018-02-01T06:09:12.798Z,3.05
2018-02-01T06:11:42.050Z,3.02
2018-02-01T06:14:12.043Z,3.05
2018-02-01T06:16:41.304Z,3.04
2018-02-01T06:19:11.251Z,3.01
2018-02-01T06:21:40.465Z,3.05
2018-02-01T06:24:09.722Z,3.04
2018-02-01T06:26:38.963Z,2.97
2018-02-01T06:29:08.406Z,2.97
2018-02-01T06:31:37.908Z,2.97
2018-02-01T06:34:07.422Z,2.99
2018-02-01T06:36:36.859Z,2.96
2018-02-01T06:39:06.420Z,2.93
2018-02-01T06:41:35.769Z,2.98
2018-02-01T06:44:05.168Z,2.96
2018-02-01T06:46:34.654Z,2.98
2018-02-01T06:49:04.058Z,2.98
2018-02-01T06:51:33.960Z,2.95
2018-02-01T06:54:03.497Z,2.94
2018-02-01T06:56:32.689Z,2.95
2018-02-01T06:59:02.011Z,3.00
2018-02-01T07:01:32.974Z,3.01
2018-02-01T07:04:02.988Z,3.01
2018-02-01T07:06:32.974Z,3.06
2018-02-01T07:09:02.181Z,3.03
2018-02-01T07:11:31.379Z,3.01
2018-02-01T07:14:00.606Z,3.02
2018-02-01T07:16:29.794Z,3.03
2018-02-01T07:18:59.860Z,3.05
2018-02-01T07:21:29.036Z,3.03
2018-02-01T07:23:58.554Z,3.06
2018-02-01T07:26:27.795Z,3.07
2018-02-01T07:28:57.801Z,3.09
2018-02-01T07:31:27.023Z,3.12
2018-02-01T07:33:56.995Z,3.13
2018-02-01T07:36:26.269Z,3.18
2018-02-01T07:38:56.189Z,3.22
2018-02-01T07:41:25.412Z,3.24
2018-02-01T07:43:54.723Z,3.29
2018-02-01T07:46:23.915Z,3.33
2018-02-01T07:48:53.152Z,3.36
2018-02-01T07:51:23.737Z,3.36
2018-02-01T07:53:52.938Z,3.41
2018-02-01T07:56:22.180Z,3.38
2018-02-01T07:58:51.404Z,3.36
2018-02-01T08:01:20.619Z,3.43
2018-02-01T08:03:49.822Z,3.47
2018-02-01T08:06:19.026Z,3.48
2018-02-01T08:08:48.243Z,3.54
2018-02-01T08:11:18.194Z,3.62
2018-02-01T08:13:47.599Z,3.70
2018-02-01T08:16:16.788Z,3.75
2018-02-01T08:18:46.044Z,3.76
2018-02-01T08:21:15.241Z,3.80
2018-02-01T08:23:45.242Z,3.91
2018-02-01T08:26:14.443Z,3.94
2018-02-01T08:28:43.658Z,3.95
2018-02-01T08:31:12.918Z,3.92
2018-02-01T08:33:42.131Z,3.95
2018-02-01T08:36:11.357Z,3.95
2018-02-01T08:38:42.076Z,3.98
2018-02-01T08:41:11.344Z,3.99
2018-02-01T08:43:40.534Z,4.01
2018-02-01T08:46:09.725Z,3.98
2018-02-01T08:48:38.930Z,4.02
2018-02-01T08:51:08.176Z,4.01
2018-02-01T08:53:38.149Z,4.04
2018-02-01T08:56:07.357Z,4.13
2018-02-01T08:58:36.586Z,4.15
2018-02-01T09:01:05.789Z,4.21
2018-02-01T09:03:35.768Z,4.21
2018-02-01T09:06:05.032Z,4.21
2018-02-01T09:08:35.683Z,4.23
2018-02-01T09:11:04.974Z,4.31
2018-02-01T09:13:34.179Z,4.37
2018-02-01T09:16:03.369Z,4.45
2018-02-01T09:18:32.568Z,4.47
2018-02-01T09:21:01.897Z,4.54
2018-02-01T09:23:31.351Z,4.60
2018-02-01T09:26:00.638Z,4.65
2018-02-01T09:28:30.601Z,4.75
2018-02-01T09:30:59.794Z,4.84
2018-02-01T09:33:29.135Z,5.00
2018-02-01T09:35:58.376Z,5.10
2018-02-01T09:38:27.597Z,5.26
2018-02-01T09:40:56.796Z,5.34
2018-02-01T09:43:26.020Z,5.43
2018-02-01T09:45:55.382Z,5.48
2018-02-01T09:48:24.578Z,5.55
2018-02-01T09:50:53.846Z,5.63
2018-02-01T09:53:23.035Z,5.71
2018-02-01T09:55:53.187Z,5.72
2018-02-01T09:58:22.403Z,5.73
2018-02-01T10:00:51.607Z,5.69
2018-02-01T10:03:20.848Z,5.63
2018-02-01T10:05:50.829Z,5.66
2018-02-01T10:08:21.561Z,5.51
2018-02-01T10:10:51.581Z,5.48
2018-02-01T10:13:20.778Z,5.46
2018-02-01T10:15:49.971Z,5.49
2018-02-01T10:18:19.317Z,5.51
2018-02-01T10:20:48.564Z,5.53
2018-02-01T10:23:17.774Z,5.58
2018-02-01T10:25:46.997Z,5.59
2018-02-01T10:28:16.974Z,5.65
2018-02-01T10:30:46.348Z,5.75
2018-02-01T10:33:16.262Z,5.82
2018-02-01T10:35:45.555Z,5.85
2018-02-01T10:38:14.746Z,5.84
2018-02-01T10:40:44.170Z,5.85
2018-02-01T10:43:13.420Z,5.84
2018-02-01T10:45:42.613Z,5.77
2018-02-01T10:48:12.621Z,5.79
2018-02-01T10:50:42.606Z,5.75
2018-02-01T10:53:11.912Z,5.79
2018-02-01T10:55:41.165Z,5.84
2018-02-01T10:58:10.375Z,5.83
2018-02-01T11:00:39.604Z,5.86
2018-02-01T11:03:08.820Z,5.90
2018-02-01T11:05:38.817Z,5.89
2018-02-01T11:08:08.061Z,5.93
2018-02-01T11:10:37.492Z,5.98
2018-02-01T11:13:06.690Z,6.01
2018-02-01T11:15:35.941Z,6.08
2018-02-01T11:18:05.214Z,6.16
2018-02-01T11:20:34.588Z,6.21
2018-02-01T11:23:03.780Z,6.26
2018-02-01T11:25:32.999Z,6.29
2018-02-01T11:28:02.220Z,6.29
2018-02-01T11:30:31.493Z,6.18
2018-02-01T11:33:00.686Z,6.21
2018-02-01T11:35:29.929Z,6.25
2018-02-01T11:37:59.126Z,6.30
2018-02-01T11:40:28.324Z,6.35
2018-02-01T11:42:57.517Z,6.39
2018-02-01T11:45:26.757Z,6.39
2018-02-01T11:47:55.990Z,6.47
2018-02-01T11:50:25.163Z,6.60
2018-02-01T11:52:54.369Z,6.67
2018-02-01T11:55:23.574Z,6.69
2018-02-01T11:57:52.812Z,6.68
2018-02-01T12:00:22.828Z,6.69
2018-02-01T12:02:52.074Z,6.73
2018-02-01T12:05:21.372Z,6.80
2018-02-01T12:07:51.339Z,6.80
2018-02-01T12:10:20.538Z,6.78
2018-02-01T12:12:50.516Z,6.80
2018-02-01T12:15:19.732Z,6.74
2018-02-01T12:17:48.973Z,6.63
2018-02-01T12:20:18.176Z,6.65
2018-02-01T12:22:47.490Z,6.62
2018-02-01T12:25:16.701Z,6.57
2018-02-01T12:27:45.900Z,6.62
2018-02-01T12:30:15.385Z,6.63
2018-02-01T12:32:44.599Z,6.65
2018-02-01T12:35:13.805Z,6.68
2018-02-01T12:37:43.076Z,6.69
2018-02-01T12:40:12.309Z,6.72
2018-02-01T12:42:41.574Z,6.72
2018-02-01T12:45:11.594Z,6.67
2018-02-01T12:47:40.732Z,6.60
2018-02-01T12:50:10.743Z,6.64
2018-02-01T12:52:39.956Z,6.62
2018-02-01T12:55:09.952Z,6.59
2018-02-01T12:57:39.302Z,6.58
2018-02-01T13:00:08.557Z,6.58
2018-02-01T13:02:37.729Z,6.53
2018-02-01T13:05:06.972Z,6.51
2018-02-01T13:07:36.171Z,6.49
2018-02-01T13:10:06.162Z,6.48
2018-02-01T13:12:35.360Z,6.43
2018-02-01T13:15:04.550Z,6.41
2018-02-01T13:17:33.922Z,6.29
2018-02-01T13:20:03.105Z,6.12
2018-02-01T13:22:32.319Z,6.02
2018-02-01T13:25:01.509Z,5.96
2018-02-01T13:27:30.726Z,5.94
2018-02-01T13:29:59.936Z,5.97
2018-02-01T13:32:29.163Z,5.94
2018-02-01T13:34:58.362Z,5.87
2018-02-01T13:37:27.561Z,5.77
2018-02-01T13:39:57.516Z,5.65
2018-02-01T13:42:26.715Z,5.65
2018-02-01T13:44:55.919Z,5.72
2018-02-01T13:47:25.140Z,5.79
2018-02-01T13:49:54.339Z,5.82
2018-02-01T13:52:23.607Z,5.84
2018-02-01T13:54:52.832Z,5.86
2018-02-01T13:57:22.100Z,5.92
2018-02-01T13:59:51.497Z,5.98
2018-02-01T14:02:21.517Z,5.96
2018-02-01T14:04:51.691Z,5.97
2018-02-01T14:07:22.091Z,5.96
2018-02-01T14:09:51.618Z,5.95
2018-02-01T14:12:21.581Z,5.98
2018-02-01T14:14:50.809Z,6.00
2018-02-01T14:17:20.018Z,6.02
2018-02-01T14:19:49.232Z,5.93
2018-02-01T14:22:19.210Z,5.90
2018-02-01T14:24:48.443Z,5.87
2018-02-01T14:27:19.165Z,5.78
2018-02-01T14:29:48.414Z,5.72
2018-02-01T14:32:17.880Z,5.70
2018-02-01T14:34:47.858Z,5.64
2018-02-01T14:37:17.087Z,5.57
2018-02-01T14:39:46.354Z,5.54
2018-02-01T14:42:15.812Z,5.56
2018-02-01T14:44:45.871Z,5.59
2018-02-01T14:47:15.099Z,5.64
2018-02-01T14:49:44.289Z,5.69
2018-02-01T14:52:13.614Z,5.69
2018-02-01T14:54:42.809Z,5.65
2018-02-01T14:57:12.887Z,5.67
2018-02-01T14:59:42.101Z,5.64
2018-02-01T15:02:11.518Z,5.65
2018-02-01T15:04:40.704Z,5.37
2018-02-01T15:07:09.917Z,5.06
2018-02-01T15:09:40.237Z,4.84
2018-02-01T15:12:10.195Z,4.79
2018-02-01T15:14:39.495Z,4.77
2018-02-01T15:17:08.718Z,4.78
2018-02-01T15:19:37.918Z,4.73
2018-02-01T15:22:07.122Z,4.73
2018-02-01T15:24:36.427Z,4.78
2018-02-01T15:27:05.674Z,4.79
2018-02-01T15:29:34.999Z,4.79
2018-02-01T15:32:04.311Z,4.78
2018-02-01T15:34:34.087Z,4.80
2018-02-01T15:37:03.401Z,4.75
2018-02-01T15:39:32.621Z,4.79
2018-02-01T15:42:01.881Z,4.75
2018-02-01T15:44:31.140Z,4.79
2018-02-01T15:47:00.370Z,4.74
2018-02-01T15:49:29.614Z,4.72
2018-02-01T15:51:58.845Z,4.71
2018-02-01T15:54:28.863Z,4.65
2018-02-01T15:56:59.152Z,4.62
2018-02-01T15:59:28.326Z,4.60
2018-02-01T16:01:57.516Z,4.54
2018-02-01T16:04:26.733Z,4.51
2018-02-01T16:06:55.966Z,4.50
2018-02-01T16:09:25.168Z,4.53
2018-02-01T16:11:55.178Z,4.55
2018-02-01T16:14:24.452Z,4.57
2018-02-01T16:16:53.698Z,4.57
2018-02-01T16:19:22.928Z,4.58
2018-02-01T16:21:52.146Z,4.54
2018-02-01T16:24:21.342Z,4.56
2018-02-01T16:26:50.653Z,4.47
2018-02-01T16:29:19.945Z,4.30
2018-02-01T16:31:49.186Z,4.25
2018-02-01T16:34:19.159Z,4.26
2018-02-01T16:36:49.218Z,4.27
2018-02-01T16:39:19.184Z,4.25
2018-02-01T16:41:48.391Z,4.27
2018-02-01T16:44:17.602Z,4.36
2018-02-01T16:46:46.824Z,4.33
2018-02-01T16:49:16.818Z,4.36
2018-02-01T16:51:46.799Z,4.35
2018-02-01T16:54:16.066Z,4.38
2018-02-01T16:56:45.300Z,4.37
2018-02-01T16:59:14.586Z,4.44
2018-02-01T17:01:43.911Z,4.47
2018-02-01T17:04:13.184Z,4.51
2018-02-01T17:06:42.457Z,4.42
2018-02-01T17:09:12.442Z,4.44
2018-02-01T17:11:41.710Z,4.43
2018-02-01T17:14:10.944Z,4.47
2018-02-01T17:16:40.164Z,4.52
2018-02-01T17:19:09.400Z,4.52
2018-02-01T17:21:38.637Z,4.55
2018-02-01T17:24:07.874Z,4.56
2018-02-01T17:26:37.084Z,4.50
2018-02-01T17:29:06.324Z,4.47
2018-02-01T17:31:35.666Z,4.48
2018-02-01T17:34:04.883Z,4.43
2018-02-01T17:36:34.103Z,4.42
2018-02-01T17:39:03.350Z,4.38
2018-02-01T17:41:32.613Z,4.36
2018-02-01T17:44:01.937Z,4.36
2018-02-01T17:46:31.904Z,4.35
2018-02-01T17:49:01.194Z,4.32
2018-02-01T17:51:30.457Z,4.32
2018-02-01T17:53:59.668Z,4.29
2018-02-01T17:56:28.932Z,4.26
2018-02-01T17:58:58.955Z,4.22
2018-02-01T18:01:28.971Z,4.17
2018-02-01T18:03:58.963Z,4.14
2018-02-01T18:06:28.222Z,4.15
2018-02-01T18:08:57.474Z,4.10
2018-02-01T18:11:26.859Z,4.10
2018-02-01T18:13:56.231Z,4.12
2018-02-01T18:16:25.473Z,4.08
2018-02-01T18:18:54.678Z,4.03
2018-02-01T18:21:24.666Z,3.97
2018-02-01T18:23:53.921Z,3.92
2018-02-01T18:26:23.927Z,3.91
2018-02-01T18:28:53.147Z,3.87
2018-02-01T18:31:22.370Z,3.84
2018-02-01T18:33:53.172Z,3.85
2018-02-01T18:36:26.131Z,3.85
2018-02-01T18:38:55.338Z,3.82
2018-02-01T18:41:25.310Z,3.77
2018-02-01T18:43:54.549Z,3.77
2018-02-01T18:46:24.577Z,3.77
2018-02-01T18:48:53.772Z,3.78
2018-02-01T18:51:23.007Z,3.80
2018-02-01T18:53:52.398Z,3.80
2018-02-01T18:56:22.440Z,3.78
2018-02-01T18:58:51.650Z,3.78
2018-02-01T19:01:20.907Z,3.77
2018-02-01T19:03:50.274Z,3.79
2018-02-01T19:06:20.369Z,3.79
2018-02-01T19:08:50.419Z,3.81
2018-02-01T19:11:19.807Z,3.80
2018-02-01T19:13:49.843Z,3.77
2018-02-01T19:16:19.066Z,3.80
2018-02-01T19:18:48.321Z,3.82
2018-02-01T19:21:18.306Z,3.80
2018-02-01T19:23:47.552Z,3.81
2018-02-01T19:26:16.773Z,3.80
2018-02-01T19:28:46.172Z,3.78
2018-02-01T19:31:15.408Z,3.76
2018-02-01T19:33:44.716Z,3.80
2018-02-01T19:36:13.934Z,3.76
2018-02-01T19:38:43.287Z,3.74
2018-02-01T19:41:12.526Z,3.74
2018-02-01T19:43:44.710Z,3.75
2018-02-01T19:46:13.943Z,3.75
2018-02-01T19:48:43.198Z,3.68
2018-02-01T19:51:13.166Z,3.68
2018-02-01T19:53:42.432Z,3.70
2018-02-01T19:56:12.427Z,3.69
2018-02-01T19:58:42.457Z,3.73
2018-02-01T20:01:11.814Z,3.73
2018-02-01T20:03:41.044Z,3.70
2018-02-01T20:06:10.598Z,3.67
2018-02-01T20:08:39.802Z,3.67
2018-02-01T20:11:09.118Z,3.69
2018-02-01T20:13:39.175Z,3.67
2018-02-01T20:16:09.332Z,3.68
2018-02-01T20:18:38.559Z,3.68
2018-02-01T20:21:07.795Z,3.66
2018-02-01T20:23:37.027Z,3.67
2018-02-01T20:26:06.249Z,3.59
2018-02-01T20:28:35.483Z,3.60
2018-02-01T20:31:04.738Z,3.60
2018-02-01T20:33:33.997Z,3.58
2018-02-01T20:36:03.247Z,3.54
2018-02-01T20:38:32.500Z,3.53
2018-02-01T20:41:01.702Z,3.54
2018-02-01T20:43:30.964Z,3.56
2018-02-01T20:46:01.071Z,3.53
2018-02-01T20:48:31.070Z,3.53
2018-02-01T20:51:00.405Z,3.46
2018-02-01T20:53:29.639Z,3.46
2018-02-01T20:55:58.877Z,3.44
2018-02-01T20:58:28.891Z,3.50
2018-02-01T21:00:58.955Z,3.51
2018-02-01T21:03:28.248Z,3.44
2018-02-01T21:05:57.504Z,3.48
2018-02-01T21:08:26.748Z,3.41
2018-02-01T21:10:55.953Z,3.40
2018-02-01T21:13:25.234Z,3.35
2018-02-01T21:15:55.202Z,3.36
2018-02-01T21:18:26.099Z,3.37
2018-02-01T21:20:55.291Z,3.34
2018-02-01T21:23:24.495Z,3.33
2018-02-01T21:25:53.723Z,3.36
2018-02-01T21:28:22.974Z,3.36
2018-02-01T21:30:52.232Z,3.38
2018-02-01T21:33:21.434Z,3.37
2018-02-01T21:35:51.424Z,3.36
2018-02-01T21:38:20.636Z,3.31
2018-02-01T21:40:49.854Z,3.30
2018-02-01T21:43:19.820Z,3.24
2018-02-01T21:45:49.040Z,3.22
2018-02-01T21:48:18.305Z,3.24
2018-02-01T21:50:47.503Z,3.27
2018-02-01T21:53:16.749Z,3.23
2018-02-01T21:55:45.984Z,3.24
2018-02-01T21:58:15.233Z,3.26
2018-02-01T22:00:46.134Z,3.22
2018-02-01T22:03:16.282Z,3.20
2018-02-01T22:05:45.502Z,3.14
2018-02-01T22:08:14.768Z,3.13
2018-02-01T22:10:43.966Z,3.07
2018-02-01T22:13:14.816Z,3.03
2018-02-01T22:15:44.054Z,3.03
2018-02-01T22:18:14.011Z,3.04
2018-02-01T22:20:43.218Z,3.05
2018-02-01T22:23:12.416Z,3.08
2018-02-01T22:25:41.646Z,3.06
2018-02-01T22:28:10.850Z,3.06
2018-02-01T22:30:40.084Z,3.10
2018-02-01T22:33:09.547Z,3.14
2018-02-01T22:35:38.736Z,3.16
2018-02-01T22:38:07.947Z,3.24
2018-02-01T22:40:38.143Z,3.28
2018-02-01T22:43:07.374Z,3.33
2018-02-01T22:45:36.706Z,3.36
2018-02-01T22:48:06.042Z,3.41
2018-02-01T22:50:35.265Z,3.44
2018-02-01T22:53:04.534Z,3.48
2018-02-01T22:55:34.587Z,3.52
2018-02-01T22:58:04.562Z,3.49
2018-02-01T23:00:33.782Z,3.53
2018-02-01T23:03:03.779Z,3.52
2018-02-01T23:05:32.990Z,3.55
2018-02-01T23:08:03.023Z,3.55
2018-02-01T23:10:33.018Z,3.57
2018-02-01T23:13:02.196Z,3.55
2018-02-01T23:15:31.448Z,3.57
2018-02-01T23:18:01.417Z,3.57
2018-02-01T23:20:30.626Z,3.56
2018-02-01T23:22:59.914Z,3.57
2018-02-01T23:25:29.075Z,3.59
2018-02-01T23:27:58.503Z,3.61
2018-02-01T23:30:27.715Z,3.62
2018-02-01T23:32:56.995Z,3.62
2018-02-01T23:35:26.333Z,3.61
2018-02-01T23:37:56.328Z,3.64
2018-02-01T23:40:25.558Z,3.64
2018-02-01T23:42:55.571Z,3.66
2018-02-01T23:45:24.839Z,3.69
2018-02-01T23:47:54.158Z,3.71
2018-02-01T23:50:24.150Z,3.74
2018-02-01T23:52:53.343Z,3.80
2018-02-01T23:55:22.755Z,3.86
2018-02-01T23:57:52.051Z,3.89
